sensor_id;sensor_type;location;lat;lon;timestamp;P1;durP1;ratioP1;P2;durP2;ratioP2
18188;SDS011;9219;50.396;8.546;2023-04-24T00:03:21;4.63;;;1.10;;
18188;SDS011;9219;50.396;8.546;2023-04-24T00:05:49;2.67;;;1.67;;
18188;SDS011;9219;50.396;8.546;2023-04-24T00:08:17;1.80;;;1.00;;
18188;SDS011;9219;50.396;8.546;2023-04-24T00:10:44;1.20;;;1.10;;
18188;SDS011;9219;50.396;8.546;2023-04-24T00:13:12;2.00;;;0.93;;
18188;SDS011;9219;50.396;8.546;2023-04-24T00:15:39;2.10;;;1.20;;
18188;SDS011;9219;50.396;8.546;2023-04-24T00:18:06;1.77;;;1.00;;
18188;SDS011;9219;50.396;8.546;2023-04-24T00:20:35;5.07;;;1.50;;
18188;SDS011;9219;50.396;8.546;2023-04-24T00:28:07;3.30;;;1.57;;
18188;SDS011;9219;50.396;8.546;2023-04-24T00:30:34;3.13;;;1.53;;
18188;SDS011;9219;50.396;8.546;2023-04-24T00:33:01;3.07;;;1.70;;
18188;SDS011;9219;50.396;8.546;2023-04-24T00:35:29;1.70;;;1.20;;
18188;SDS011;9219;50.396;8.546;2023-04-24T00:37:56;3.33;;;1.60;;
18188;SDS011;9219;50.396;8.546;2023-04-24T00:40:23;2.93;;;1.80;;
18188;SDS011;9219;50.396;8.546;2023-04-24T00:42:50;1.90;;;1.70;;
18188;SDS011;9219;50.396;8.546;2023-04-24T00:47:58;2.27;;;1.30;;
18188;SDS011;9219;50.396;8.546;2023-04-24T00:50:27;2.20;;;1.63;;
18188;SDS011;9219;50.396;8.546;2023-04-24T00:52:56;2.43;;;2.23;;
18188;SDS011;9219;50.396;8.546;2023-04-24T00:55:23;2.27;;;2.07;;
18188;SDS011;9219;50.396;8.546;2023-04-24T00:57:51;2.83;;;1.97;;
18188;SDS011;9219;50.396;8.546;2023-04-24T01:00:19;2.40;;;2.00;;
18188;SDS011;9219;50.396;8.546;2023-04-24T01:02:46;3.57;;;2.33;;
18188;SDS011;9219;50.396;8.546;2023-04-24T01:05:15;4.47;;;2.40;;
18188;SDS011;9219;50.396;8.546;2023-04-24T01:12:44;5.00;;;2.87;;
18188;SDS011;9219;50.396;8.546;2023-04-24T01:15:12;3.00;;;2.70;;
18188;SDS011;9219;50.396;8.546;2023-04-24T01:17:40;2.90;;;2.60;;
18188;SDS011;9219;50.396;8.546;2023-04-24T01:20:07;4.70;;;2.70;;
18188;SDS011;9219;50.396;8.546;2023-04-24T01:22:37;3.47;;;2.80;;
18188;SDS011;9219;50.396;8.546;2023-04-24T01:25:04;7.73;;;2.70;;
18188;SDS011;9219;50.396;8.546;2023-04-24T01:27:32;3.00;;;2.20;;
18188;SDS011;9219;50.396;8.546;2023-04-24T01:29:59;3.03;;;2.20;;
18188;SDS011;9219;50.396;8.546;2023-04-24T01:37:31;6.53;;;2.17;;
18188;SDS011;9219;50.396;8.546;2023-04-24T01:39:59;4.07;;;2.60;;
18188;SDS011;9219;50.396;8.546;2023-04-24T01:42:26;4.33;;;2.73;;
18188;SDS011;9219;50.396;8.546;2023-04-24T01:44:53;2.13;;;1.80;;
18188;SDS011;9219;50.396;8.546;2023-04-24T01:47:21;2.63;;;2.10;;
18188;SDS011;9219;50.396;8.546;2023-04-24T01:49:49;4.70;;;2.50;;
18188;SDS011;9219;50.396;8.546;2023-04-24T01:52:17;8.93;;;2.67;;
18188;SDS011;9219;50.396;8.546;2023-04-24T01:54:46;1.90;;;1.63;;
18188;SDS011;9219;50.396;8.546;2023-04-24T02:02:16;9.00;;;3.00;;
18188;SDS011;9219;50.396;8.546;2023-04-24T02:04:45;3.40;;;2.50;;
18188;SDS011;9219;50.396;8.546;2023-04-24T02:07:12;3.30;;;2.27;;
18188;SDS011;9219;50.396;8.546;2023-04-24T02:09:39;6.40;;;3.03;;
18188;SDS011;9219;50.396;8.546;2023-04-24T02:12:07;6.13;;;2.57;;
18188;SDS011;9219;50.396;8.546;2023-04-24T02:14:34;4.77;;;2.77;;
18188;SDS011;9219;50.396;8.546;2023-04-24T02:17:05;4.07;;;2.60;;
18188;SDS011;9219;50.396;8.546;2023-04-24T02:27:12;1.70;;;1.60;;
18188;SDS011;9219;50.396;8.546;2023-04-24T02:29:39;1.53;;;1.30;;
18188;SDS011;9219;50.396;8.546;2023-04-24T02:32:07;1.37;;;1.23;;
18188;SDS011;9219;50.396;8.546;2023-04-24T02:34:37;4.70;;;1.40;;
18188;SDS011;9219;50.396;8.546;2023-04-24T02:37:04;1.57;;;1.20;;
18188;SDS011;9219;50.396;8.546;2023-04-24T02:39:31;1.70;;;1.47;;
18188;SDS011;9219;50.396;8.546;2023-04-24T02:41:58;2.07;;;0.90;;
18188;SDS011;9219;50.396;8.546;2023-04-24T02:44:27;3.20;;;1.07;;
18188;SDS011;9219;50.396;8.546;2023-04-24T02:49:33;1.10;;;1.00;;
18188;SDS011;9219;50.396;8.546;2023-04-24T02:52:00;1.73;;;1.00;;
18188;SDS011;9219;50.396;8.546;2023-04-24T02:54:27;2.17;;;1.20;;
18188;SDS011;9219;50.396;8.546;2023-04-24T02:56:54;1.40;;;1.10;;
18188;SDS011;9219;50.396;8.546;2023-04-24T02:59:22;2.03;;;1.43;;
18188;SDS011;9219;50.396;8.546;2023-04-24T03:01:50;2.23;;;1.20;;
18188;SDS011;9219;50.396;8.546;2023-04-24T03:04:17;4.17;;;1.73;;
18188;SDS011;9219;50.396;8.546;2023-04-24T03:09:31;1.77;;;1.20;;
18188;SDS011;9219;50.396;8.546;2023-04-24T03:11:58;3.60;;;1.33;;
18188;SDS011;9219;50.396;8.546;2023-04-24T03:14:26;4.40;;;2.03;;
18188;SDS011;9219;50.396;8.546;2023-04-24T03:16:55;2.53;;;1.70;;
18188;SDS011;9219;50.396;8.546;2023-04-24T03:19:22;1.80;;;1.63;;
18188;SDS011;9219;50.396;8.546;2023-04-24T03:21:49;2.73;;;1.53;;
18188;SDS011;9219;50.396;8.546;2023-04-24T03:24:17;2.13;;;1.50;;
18188;SDS011;9219;50.396;8.546;2023-04-24T03:26:45;2.13;;;1.70;;
18188;SDS011;9219;50.396;8.546;2023-04-24T03:34:18;4.40;;;1.70;;
18188;SDS011;9219;50.396;8.546;2023-04-24T03:36:45;3.90;;;3.00;;
18188;SDS011;9219;50.396;8.546;2023-04-24T03:39:13;4.03;;;1.80;;
18188;SDS011;9219;50.396;8.546;2023-04-24T03:41:40;3.50;;;1.90;;
18188;SDS011;9219;50.396;8.546;2023-04-24T03:44:08;2.43;;;1.60;;
18188;SDS011;9219;50.396;8.546;2023-04-24T03:46:35;2.53;;;2.20;;
18188;SDS011;9219;50.396;8.546;2023-04-24T03:49:02;3.43;;;2.40;;
18188;SDS011;9219;50.396;8.546;2023-04-24T03:51:30;3.73;;;1.60;;
18188;SDS011;9219;50.396;8.546;2023-04-24T03:59:03;4.07;;;2.73;;
18188;SDS011;9219;50.396;8.546;2023-04-24T04:01:31;2.87;;;1.77;;
18188;SDS011;9219;50.396;8.546;2023-04-24T04:04:02;1.90;;;1.53;;
18188;SDS011;9219;50.396;8.546;2023-04-24T04:06:29;2.93;;;2.10;;
18188;SDS011;9219;50.396;8.546;2023-04-24T04:08:57;2.17;;;1.90;;
18188;SDS011;9219;50.396;8.546;2023-04-24T04:11:24;6.53;;;2.37;;
18188;SDS011;9219;50.396;8.546;2023-04-24T04:13:53;2.70;;;2.03;;
18188;SDS011;9219;50.396;8.546;2023-04-24T04:16:22;3.27;;;2.03;;
18188;SDS011;9219;50.396;8.546;2023-04-24T04:23:47;4.47;;;2.40;;
18188;SDS011;9219;50.396;8.546;2023-04-24T04:26:15;2.23;;;1.87;;
18188;SDS011;9219;50.396;8.546;2023-04-24T04:28:42;2.30;;;1.77;;
18188;SDS011;9219;50.396;8.546;2023-04-24T04:31:10;3.77;;;2.13;;
18188;SDS011;9219;50.396;8.546;2023-04-24T04:33:37;3.23;;;2.20;;
18188;SDS011;9219;50.396;8.546;2023-04-24T04:36:05;5.43;;;1.93;;
18188;SDS011;9219;50.396;8.546;2023-04-24T04:38:32;4.90;;;2.10;;
18188;SDS011;9219;50.396;8.546;2023-04-24T04:41:01;2.43;;;2.00;;
18188;SDS011;9219;50.396;8.546;2023-04-24T04:48:47;4.53;;;2.30;;
18188;SDS011;9219;50.396;8.546;2023-04-24T04:51:14;2.03;;;1.83;;
18188;SDS011;9219;50.396;8.546;2023-04-24T04:53:42;2.23;;;1.60;;
18188;SDS011;9219;50.396;8.546;2023-04-24T04:56:09;2.23;;;2.03;;
18188;SDS011;9219;50.396;8.546;2023-04-24T04:58:36;1.93;;;1.40;;
18188;SDS011;9219;50.396;8.546;2023-04-24T05:01:03;3.60;;;2.33;;
18188;SDS011;9219;50.396;8.546;2023-04-24T05:03:30;4.50;;;2.37;;
18188;SDS011;9219;50.396;8.546;2023-04-24T05:06:00;1.97;;;1.73;;
18188;SDS011;9219;50.396;8.546;2023-04-24T05:13:27;2.57;;;2.37;;
18188;SDS011;9219;50.396;8.546;2023-04-24T05:16:04;2.87;;;2.17;;
18188;SDS011;9219;50.396;8.546;2023-04-24T05:18:32;4.23;;;1.70;;
18188;SDS011;9219;50.396;8.546;2023-04-24T05:20:59;9.20;;;3.20;;
18188;SDS011;9219;50.396;8.546;2023-04-24T05:23:26;2.97;;;2.00;;
18188;SDS011;9219;50.396;8.546;2023-04-24T05:25:54;3.33;;;2.13;;
18188;SDS011;9219;50.396;8.546;2023-04-24T05:28:21;3.60;;;2.07;;
18188;SDS011;9219;50.396;8.546;2023-04-24T05:33:55;3.40;;;2.43;;
18188;SDS011;9219;50.396;8.546;2023-04-24T05:36:23;3.53;;;2.23;;
18188;SDS011;9219;50.396;8.546;2023-04-24T05:38:50;3.17;;;2.33;;
18188;SDS011;9219;50.396;8.546;2023-04-24T05:41:17;3.50;;;2.53;;
18188;SDS011;9219;50.396;8.546;2023-04-24T05:43:44;2.20;;;1.97;;
18188;SDS011;9219;50.396;8.546;2023-04-24T05:46:11;4.67;;;2.47;;
18188;SDS011;9219;50.396;8.546;2023-04-24T05:48:38;4.00;;;2.47;;
18188;SDS011;9219;50.396;8.546;2023-04-24T05:51:08;3.40;;;2.33;;
18188;SDS011;9219;50.396;8.546;2023-04-24T05:53:48;2.83;;;2.23;;
18188;SDS011;9219;50.396;8.546;2023-04-24T05:56:15;5.23;;;2.57;;
18188;SDS011;9219;50.396;8.546;2023-04-24T05:58:43;11.57;;;2.60;;
18188;SDS011;9219;50.396;8.546;2023-04-24T06:01:11;6.23;;;2.60;;
18188;SDS011;9219;50.396;8.546;2023-04-24T06:03:38;4.50;;;2.97;;
18188;SDS011;9219;50.396;8.546;2023-04-24T06:06:07;6.43;;;3.17;;
18188;SDS011;9219;50.396;8.546;2023-04-24T06:08:35;4.30;;;3.07;;
18188;SDS011;9219;50.396;8.546;2023-04-24T06:11:03;3.93;;;3.20;;
18188;SDS011;9219;50.396;8.546;2023-04-24T06:21:31;6.30;;;3.40;;
18188;SDS011;9219;50.396;8.546;2023-04-24T06:23:58;4.50;;;3.03;;
18188;SDS011;9219;50.396;8.546;2023-04-24T06:26:26;4.67;;;3.77;;
18188;SDS011;9219;50.396;8.546;2023-04-24T06:28:53;6.70;;;4.07;;
18188;SDS011;9219;50.396;8.546;2023-04-24T06:31:21;4.80;;;3.20;;
18188;SDS011;9219;50.396;8.546;2023-04-24T06:33:48;4.70;;;3.27;;
18188;SDS011;9219;50.396;8.546;2023-04-24T06:38:55;6.67;;;3.33;;
18188;SDS011;9219;50.396;8.546;2023-04-24T06:41:23;4.53;;;2.97;;
18188;SDS011;9219;50.396;8.546;2023-04-24T06:43:50;4.63;;;3.27;;
18188;SDS011;9219;50.396;8.546;2023-04-24T06:46:17;5.80;;;3.13;;
18188;SDS011;9219;50.396;8.546;2023-04-24T06:48:47;6.67;;;3.30;;
18188;SDS011;9219;50.396;8.546;2023-04-24T06:51:14;7.17;;;3.93;;
18188;SDS011;9219;50.396;8.546;2023-04-24T06:53:43;6.23;;;3.67;;
18188;SDS011;9219;50.396;8.546;2023-04-24T07:01:16;6.53;;;3.70;;
18188;SDS011;9219;50.396;8.546;2023-04-24T07:03:43;5.67;;;3.63;;
18188;SDS011;9219;50.396;8.546;2023-04-24T07:06:11;6.57;;;3.73;;
18188;SDS011;9219;50.396;8.546;2023-04-24T07:08:38;6.03;;;4.40;;
18188;SDS011;9219;50.396;8.546;2023-04-24T07:11:07;5.53;;;4.03;;
18188;SDS011;9219;50.396;8.546;2023-04-24T07:13:34;5.87;;;4.13;;
18188;SDS011;9219;50.396;8.546;2023-04-24T07:16:07;5.90;;;3.97;;
18188;SDS011;9219;50.396;8.546;2023-04-24T07:26:16;6.93;;;3.53;;
18188;SDS011;9219;50.396;8.546;2023-04-24T07:28:43;5.47;;;4.30;;
18188;SDS011;9219;50.396;8.546;2023-04-24T07:31:10;4.97;;;3.67;;
18188;SDS011;9219;50.396;8.546;2023-04-24T07:33:38;5.63;;;3.83;;
18188;SDS011;9219;50.396;8.546;2023-04-24T07:36:05;6.43;;;3.73;;
18188;SDS011;9219;50.396;8.546;2023-04-24T07:38:32;3.90;;;3.43;;
18188;SDS011;9219;50.396;8.546;2023-04-24T07:40:59;5.03;;;3.50;;
18188;SDS011;9219;50.396;8.546;2023-04-24T07:46:13;7.27;;;3.20;;
18188;SDS011;9219;50.396;8.546;2023-04-24T07:48:41;6.03;;;3.17;;
18188;SDS011;9219;50.396;8.546;2023-04-24T07:51:08;7.23;;;3.53;;
18188;SDS011;9219;50.396;8.546;2023-04-24T07:53:36;4.60;;;3.90;;
18188;SDS011;9219;50.396;8.546;2023-04-24T07:56:03;5.47;;;3.73;;
18188;SDS011;9219;50.396;8.546;2023-04-24T07:58:31;5.77;;;2.97;;
18188;SDS011;9219;50.396;8.546;2023-04-24T08:00:58;4.43;;;2.87;;
18188;SDS011;9219;50.396;8.546;2023-04-24T08:06:05;3.53;;;2.70;;
18188;SDS011;9219;50.396;8.546;2023-04-24T08:08:33;3.00;;;2.70;;
18188;SDS011;9219;50.396;8.546;2023-04-24T08:11:00;5.50;;;2.77;;
18188;SDS011;9219;50.396;8.546;2023-04-24T08:13:27;3.40;;;2.73;;
18188;SDS011;9219;50.396;8.546;2023-04-24T08:15:56;4.10;;;2.80;;
18188;SDS011;9219;50.396;8.546;2023-04-24T08:18:23;4.47;;;3.07;;
18188;SDS011;9219;50.396;8.546;2023-04-24T08:20:51;3.93;;;2.77;;
18188;SDS011;9219;50.396;8.546;2023-04-24T08:25:59;3.07;;;2.77;;
18188;SDS011;9219;50.396;8.546;2023-04-24T08:28:26;5.50;;;2.30;;
18188;SDS011;9219;50.396;8.546;2023-04-24T08:30:53;2.83;;;2.27;;
18188;SDS011;9219;50.396;8.546;2023-04-24T08:33:20;2.93;;;2.20;;
18188;SDS011;9219;50.396;8.546;2023-04-24T08:35:48;3.50;;;2.67;;
18188;SDS011;9219;50.396;8.546;2023-04-24T08:38:15;5.37;;;2.57;;
18188;SDS011;9219;50.396;8.546;2023-04-24T08:40:42;3.97;;;2.17;;
18188;SDS011;9219;50.396;8.546;2023-04-24T08:43:12;2.83;;;2.30;;
18188;SDS011;9219;50.396;8.546;2023-04-24T08:50:41;3.83;;;2.63;;
18188;SDS011;9219;50.396;8.546;2023-04-24T08:53:10;2.20;;;1.80;;
18188;SDS011;9219;50.396;8.546;2023-04-24T08:55:37;2.27;;;1.83;;
18188;SDS011;9219;50.396;8.546;2023-04-24T08:58:05;2.63;;;1.93;;
18188;SDS011;9219;50.396;8.546;2023-04-24T09:00:33;2.83;;;1.93;;
18188;SDS011;9219;50.396;8.546;2023-04-24T09:03:01;3.20;;;2.17;;
18188;SDS011;9219;50.396;8.546;2023-04-24T09:05:29;5.37;;;2.30;;
18188;SDS011;9219;50.396;8.546;2023-04-24T09:13:29;2.60;;;2.07;;
18188;SDS011;9219;50.396;8.546;2023-04-24T09:15:58;3.13;;;2.60;;
18188;SDS011;9219;50.396;8.546;2023-04-24T09:18:26;3.40;;;2.23;;
18188;SDS011;9219;50.396;8.546;2023-04-24T09:21:00;3.30;;;2.57;;
18188;SDS011;9219;50.396;8.546;2023-04-24T09:23:29;3.63;;;2.50;;
18188;SDS011;9219;50.396;8.546;2023-04-24T09:25:58;2.20;;;1.80;;
18188;SDS011;9219;50.396;8.546;2023-04-24T09:28:29;2.10;;;1.80;;
18188;SDS011;9219;50.396;8.546;2023-04-24T09:36:08;2.07;;;1.87;;
18188;SDS011;9219;50.396;8.546;2023-04-24T09:38:36;2.70;;;1.60;;
18188;SDS011;9219;50.396;8.546;2023-04-24T09:41:05;1.73;;;1.20;;
18188;SDS011;9219;50.396;8.546;2023-04-24T09:43:34;1.87;;;1.67;;
18188;SDS011;9219;50.396;8.546;2023-04-24T09:46:04;1.83;;;1.40;;
18188;SDS011;9219;50.396;8.546;2023-04-24T09:48:34;1.67;;;1.57;;
18188;SDS011;9219;50.396;8.546;2023-04-24T09:51:04;2.77;;;1.17;;
18188;SDS011;9219;50.396;8.546;2023-04-24T09:53:37;2.97;;;1.67;;
18188;SDS011;9219;50.396;8.546;2023-04-24T09:56:17;1.70;;;1.37;;
18188;SDS011;9219;50.396;8.546;2023-04-24T09:58:46;2.00;;;1.40;;
18188;SDS011;9219;50.396;8.546;2023-04-24T10:01:13;1.97;;;1.57;;
18188;SDS011;9219;50.396;8.546;2023-04-24T10:03:42;1.57;;;1.20;;
18188;SDS011;9219;50.396;8.546;2023-04-24T10:06:11;1.53;;;1.43;;
18188;SDS011;9219;50.396;8.546;2023-04-24T10:08:39;1.37;;;1.23;;
18188;SDS011;9219;50.396;8.546;2023-04-24T10:11:07;5.37;;;1.50;;
18188;SDS011;9219;50.396;8.546;2023-04-24T10:21:47;1.07;;;0.90;;
18188;SDS011;9219;50.396;8.546;2023-04-24T10:24:16;1.07;;;0.97;;
18188;SDS011;9219;50.396;8.546;2023-04-24T10:26:47;1.27;;;1.17;;
18188;SDS011;9219;50.396;8.546;2023-04-24T10:29:17;2.00;;;1.00;;
18188;SDS011;9219;50.396;8.546;2023-04-24T10:31:45;1.87;;;1.27;;
18188;SDS011;9219;50.396;8.546;2023-04-24T10:34:13;1.27;;;1.17;;
18188;SDS011;9219;50.396;8.546;2023-04-24T10:36:44;1.20;;;1.10;;
18188;SDS011;9219;50.396;8.546;2023-04-24T10:45:24;1.73;;;1.13;;
18188;SDS011;9219;50.396;8.546;2023-04-24T10:47:52;2.80;;;1.40;;
18188;SDS011;9219;50.396;8.546;2023-04-24T10:50:28;2.23;;;1.70;;
18188;SDS011;9219;50.396;8.546;2023-04-24T10:53:13;2.20;;;1.50;;
18188;SDS011;9219;50.396;8.546;2023-04-24T10:55:43;1.10;;;0.90;;
18188;SDS011;9219;50.396;8.546;2023-04-24T10:58:13;2.23;;;1.10;;
18188;SDS011;9219;50.396;8.546;2023-04-24T11:05:51;1.27;;;0.87;;
18188;SDS011;9219;50.396;8.546;2023-04-24T11:08:23;1.03;;;0.93;;
18188;SDS011;9219;50.396;8.546;2023-04-24T11:10:54;1.43;;;1.17;;
18188;SDS011;9219;50.396;8.546;2023-04-24T11:16:37;2.60;;;1.60;;
18188;SDS011;9219;50.396;8.546;2023-04-24T11:19:08;4.03;;;1.10;;
18188;SDS011;9219;50.396;8.546;2023-04-24T11:21:46;2.50;;;1.40;;
18188;SDS011;9219;50.396;8.546;2023-04-24T11:29:59;2.27;;;1.53;;
18188;SDS011;9219;50.396;8.546;2023-04-24T11:32:28;4.37;;;1.87;;
18188;SDS011;9219;50.396;8.546;2023-04-24T11:34:58;1.80;;;1.50;;
18188;SDS011;9219;50.396;8.546;2023-04-24T11:37:27;2.00;;;1.50;;
18188;SDS011;9219;50.396;8.546;2023-04-24T11:39:56;2.37;;;1.93;;
18188;SDS011;9219;50.396;8.546;2023-04-24T11:42:25;2.40;;;1.90;;
18188;SDS011;9219;50.396;8.546;2023-04-24T11:44:53;3.93;;;1.90;;
18188;SDS011;9219;50.396;8.546;2023-04-24T11:47:28;2.27;;;2.00;;
18188;SDS011;9219;50.396;8.546;2023-04-24T11:55:00;4.60;;;2.97;;
18188;SDS011;9219;50.396;8.546;2023-04-24T11:57:28;3.50;;;2.73;;
18188;SDS011;9219;50.396;8.546;2023-04-24T11:59:59;3.00;;;2.70;;
18188;SDS011;9219;50.396;8.546;2023-04-24T12:02:27;3.10;;;2.67;;
18188;SDS011;9219;50.396;8.546;2023-04-24T12:04:54;5.07;;;2.50;;
18188;SDS011;9219;50.396;8.546;2023-04-24T12:07:23;2.27;;;1.80;;
18188;SDS011;9219;50.396;8.546;2023-04-24T12:09:55;3.10;;;2.30;;
18188;SDS011;9219;50.396;8.546;2023-04-24T12:17:28;3.00;;;2.40;;
18188;SDS011;9219;50.396;8.546;2023-04-24T12:19:57;3.57;;;1.97;;
18188;SDS011;9219;50.396;8.546;2023-04-24T12:22:26;4.70;;;3.23;;
18188;SDS011;9219;50.396;8.546;2023-04-24T12:25:02;3.33;;;2.60;;
18188;SDS011;9219;50.396;8.546;2023-04-24T12:27:38;0.80;;;0.70;;
18188;SDS011;9219;50.396;8.546;2023-04-24T12:30:09;0.63;;;0.60;;
18188;SDS011;9219;50.396;8.546;2023-04-24T12:32:43;3.17;;;1.20;;
18188;SDS011;9219;50.396;8.546;2023-04-24T12:37:56;1.50;;;1.17;;
18188;SDS011;9219;50.396;8.546;2023-04-24T12:40:32;1.77;;;1.27;;
18188;SDS011;9219;50.396;8.546;2023-04-24T12:43:02;1.13;;;1.00;;
18188;SDS011;9219;50.396;8.546;2023-04-24T12:45:40;1.37;;;1.17;;
18188;SDS011;9219;50.396;8.546;2023-04-24T12:48:08;1.67;;;1.37;;
18188;SDS011;9219;50.396;8.546;2023-04-24T12:50:35;2.40;;;1.03;;
18188;SDS011;9219;50.396;8.546;2023-04-24T12:53:03;2.20;;;1.70;;
18188;SDS011;9219;50.396;8.546;2023-04-24T13:01:22;2.63;;;1.67;;
18188;SDS011;9219;50.396;8.546;2023-04-24T13:03:50;5.40;;;1.53;;
18188;SDS011;9219;50.396;8.546;2023-04-24T13:06:17;3.40;;;1.30;;
18188;SDS011;9219;50.396;8.546;2023-04-24T13:08:44;1.90;;;1.63;;
18188;SDS011;9219;50.396;8.546;2023-04-24T13:11:13;1.90;;;1.60;;
18188;SDS011;9219;50.396;8.546;2023-04-24T13:13:40;2.20;;;1.80;;
18188;SDS011;9219;50.396;8.546;2023-04-24T13:16:08;2.23;;;1.77;;
18188;SDS011;9219;50.396;8.546;2023-04-24T13:23:06;3.20;;;2.00;;
18188;SDS011;9219;50.396;8.546;2023-04-24T13:25:34;7.80;;;2.87;;
18188;SDS011;9219;50.396;8.546;2023-04-24T13:28:05;3.10;;;2.13;;
18188;SDS011;9219;50.396;8.546;2023-04-24T13:30:33;6.30;;;3.67;;
18188;SDS011;9219;50.396;8.546;2023-04-24T13:33:00;6.63;;;3.40;;
18188;SDS011;9219;50.396;8.546;2023-04-24T13:35:29;8.63;;;3.87;;
18188;SDS011;9219;50.396;8.546;2023-04-24T13:37:57;5.43;;;3.37;;
18188;SDS011;9219;50.396;8.546;2023-04-24T13:43:06;8.90;;;4.73;;
18188;SDS011;9219;50.396;8.546;2023-04-24T13:45:34;8.10;;;4.87;;
18188;SDS011;9219;50.396;8.546;2023-04-24T13:48:01;8.87;;;4.33;;
18188;SDS011;9219;50.396;8.546;2023-04-24T13:50:28;8.00;;;4.77;;
18188;SDS011;9219;50.396;8.546;2023-04-24T13:52:56;10.07;;;5.67;;
18188;SDS011;9219;50.396;8.546;2023-04-24T13:55:28;9.53;;;5.10;;
18188;SDS011;9219;50.396;8.546;2023-04-24T13:57:55;8.80;;;5.07;;
18188;SDS011;9219;50.396;8.546;2023-04-24T14:00:23;10.37;;;6.23;;
18188;SDS011;9219;50.396;8.546;2023-04-24T14:07:57;7.93;;;4.70;;
18188;SDS011;9219;50.396;8.546;2023-04-24T14:10:24;17.07;;;5.87;;
18188;SDS011;9219;50.396;8.546;2023-04-24T14:12:51;6.27;;;4.47;;
18188;SDS011;9219;50.396;8.546;2023-04-24T14:15:19;15.83;;;4.53;;
18188;SDS011;9219;50.396;8.546;2023-04-24T14:17:47;10.10;;;4.80;;
18188;SDS011;9219;50.396;8.546;2023-04-24T14:20:14;8.47;;;4.43;;
18188;SDS011;9219;50.396;8.546;2023-04-24T14:22:42;22.27;;;4.23;;
18188;SDS011;9219;50.396;8.546;2023-04-24T14:27:49;10.17;;;3.70;;
18188;SDS011;9219;50.396;8.546;2023-04-24T14:30:16;7.57;;;3.80;;
18188;SDS011;9219;50.396;8.546;2023-04-24T14:32:44;8.40;;;3.73;;
18188;SDS011;9219;50.396;8.546;2023-04-24T14:35:11;7.50;;;3.97;;
18188;SDS011;9219;50.396;8.546;2023-04-24T14:37:39;5.70;;;3.57;;
18188;SDS011;9219;50.396;8.546;2023-04-24T14:40:07;5.53;;;3.90;;
18188;SDS011;9219;50.396;8.546;2023-04-24T14:42:55;7.93;;;3.53;;
18188;SDS011;9219;50.396;8.546;2023-04-24T14:45:23;6.50;;;4.13;;
18188;SDS011;9219;50.396;8.546;2023-04-24T14:48:17;6.20;;;3.53;;
18188;SDS011;9219;50.396;8.546;2023-04-24T14:50:45;6.80;;;3.63;;
18188;SDS011;9219;50.396;8.546;2023-04-24T14:53:13;8.27;;;4.17;;
18188;SDS011;9219;50.396;8.546;2023-04-24T14:55:42;6.83;;;4.37;;
18188;SDS011;9219;50.396;8.546;2023-04-24T14:58:09;5.43;;;3.63;;
18188;SDS011;9219;50.396;8.546;2023-04-24T15:00:40;6.63;;;4.23;;
18188;SDS011;9219;50.396;8.546;2023-04-24T15:03:07;9.13;;;4.37;;
18188;SDS011;9219;50.396;8.546;2023-04-24T15:05:38;6.50;;;3.90;;
18188;SDS011;9219;50.396;8.546;2023-04-24T15:08:28;8.37;;;4.00;;
18188;SDS011;9219;50.396;8.546;2023-04-24T15:10:56;6.87;;;4.73;;
18188;SDS011;9219;50.396;8.546;2023-04-24T15:13:23;11.03;;;3.60;;
18188;SDS011;9219;50.396;8.546;2023-04-24T15:15:51;8.93;;;3.97;;
18188;SDS011;9219;50.396;8.546;2023-04-24T15:18:19;6.57;;;3.53;;
18188;SDS011;9219;50.396;8.546;2023-04-24T15:20:46;6.60;;;3.63;;
18188;SDS011;9219;50.396;8.546;2023-04-24T15:23:13;8.73;;;3.60;;
18188;SDS011;9219;50.396;8.546;2023-04-24T15:25:46;5.50;;;3.60;;
18188;SDS011;9219;50.396;8.546;2023-04-24T15:33:22;7.20;;;4.00;;
18188;SDS011;9219;50.396;8.546;2023-04-24T15:35:52;7.23;;;3.93;;
18188;SDS011;9219;50.396;8.546;2023-04-24T15:38:20;9.07;;;4.07;;
18188;SDS011;9219;50.396;8.546;2023-04-24T15:40:47;9.83;;;4.53;;
18188;SDS011;9219;50.396;8.546;2023-04-24T15:43:16;7.03;;;3.97;;
18188;SDS011;9219;50.396;8.546;2023-04-24T15:45:43;8.60;;;4.00;;
18188;SDS011;9219;50.396;8.546;2023-04-24T15:48:10;6.47;;;3.83;;
18188;SDS011;9219;50.396;8.546;2023-04-24T15:53:19;13.67;;;4.23;;
18188;SDS011;9219;50.396;8.546;2023-04-24T15:55:48;6.77;;;4.00;;
18188;SDS011;9219;50.396;8.546;2023-04-24T15:58:16;8.50;;;4.23;;
18188;SDS011;9219;50.396;8.546;2023-04-24T16:00:44;5.57;;;3.87;;
18188;SDS011;9219;50.396;8.546;2023-04-24T16:03:12;6.13;;;4.43;;
18188;SDS011;9219;50.396;8.546;2023-04-24T16:05:39;8.63;;;4.67;;
18188;SDS011;9219;50.396;8.546;2023-04-24T16:08:06;10.60;;;4.20;;
18188;SDS011;9219;50.396;8.546;2023-04-24T16:10:36;12.67;;;4.83;;
18188;SDS011;9219;50.396;8.546;2023-04-24T16:13:18;6.97;;;4.53;;
18188;SDS011;9219;50.396;8.546;2023-04-24T16:15:46;5.87;;;4.10;;
18188;SDS011;9219;50.396;8.546;2023-04-24T16:18:13;6.07;;;3.73;;
18188;SDS011;9219;50.396;8.546;2023-04-24T16:20:42;7.07;;;3.80;;
18188;SDS011;9219;50.396;8.546;2023-04-24T16:23:10;7.40;;;4.60;;
18188;SDS011;9219;50.396;8.546;2023-04-24T16:25:37;13.57;;;4.70;;
18188;SDS011;9219;50.396;8.546;2023-04-24T16:28:05;10.03;;;5.37;;
18188;SDS011;9219;50.396;8.546;2023-04-24T16:30:33;8.93;;;4.90;;
18188;SDS011;9219;50.396;8.546;2023-04-24T16:38:05;7.20;;;4.63;;
18188;SDS011;9219;50.396;8.546;2023-04-24T16:40:33;11.30;;;4.70;;
18188;SDS011;9219;50.396;8.546;2023-04-24T16:43:00;7.13;;;4.87;;
18188;SDS011;9219;50.396;8.546;2023-04-24T16:45:27;10.43;;;4.77;;
18188;SDS011;9219;50.396;8.546;2023-04-24T16:47:54;10.00;;;4.70;;
18188;SDS011;9219;50.396;8.546;2023-04-24T16:50:22;9.13;;;4.20;;
18188;SDS011;9219;50.396;8.546;2023-04-24T16:52:52;7.97;;;4.63;;
18188;SDS011;9219;50.396;8.546;2023-04-24T16:55:20;6.10;;;4.00;;
18188;SDS011;9219;50.396;8.546;2023-04-24T17:02:54;8.00;;;4.80;;
18188;SDS011;9219;50.396;8.546;2023-04-24T17:05:21;11.50;;;4.60;;
18188;SDS011;9219;50.396;8.546;2023-04-24T17:07:50;8.03;;;3.70;;
18188;SDS011;9219;50.396;8.546;2023-04-24T17:10:18;4.80;;;3.90;;
18188;SDS011;9219;50.396;8.546;2023-04-24T17:12:45;5.97;;;4.33;;
18188;SDS011;9219;50.396;8.546;2023-04-24T17:15:13;8.00;;;4.87;;
18188;SDS011;9219;50.396;8.546;2023-04-24T17:17:41;4.90;;;4.17;;
18188;SDS011;9219;50.396;8.546;2023-04-24T17:22:48;8.13;;;4.70;;
18188;SDS011;9219;50.396;8.546;2023-04-24T17:25:18;12.17;;;5.00;;
18188;SDS011;9219;50.396;8.546;2023-04-24T17:27:45;5.93;;;4.60;;
18188;SDS011;9219;50.396;8.546;2023-04-24T17:30:13;8.73;;;4.40;;
18188;SDS011;9219;50.396;8.546;2023-04-24T17:32:43;9.63;;;4.67;;
18188;SDS011;9219;50.396;8.546;2023-04-24T17:35:10;9.27;;;4.80;;
18188;SDS011;9219;50.396;8.546;2023-04-24T17:37:38;6.13;;;3.73;;
18188;SDS011;9219;50.396;8.546;2023-04-24T17:42:46;9.23;;;4.57;;
18188;SDS011;9219;50.396;8.546;2023-04-24T17:45:13;5.23;;;3.63;;
18188;SDS011;9219;50.396;8.546;2023-04-24T17:47:41;4.57;;;3.50;;
18188;SDS011;9219;50.396;8.546;2023-04-24T17:50:08;7.10;;;3.83;;
18188;SDS011;9219;50.396;8.546;2023-04-24T17:52:36;6.83;;;4.00;;
18188;SDS011;9219;50.396;8.546;2023-04-24T17:55:04;6.77;;;3.83;;
18188;SDS011;9219;50.396;8.546;2023-04-24T17:57:32;5.93;;;3.10;;
18188;SDS011;9219;50.396;8.546;2023-04-24T18:05:04;5.23;;;3.57;;
18188;SDS011;9219;50.396;8.546;2023-04-24T18:07:31;6.30;;;3.70;;
18188;SDS011;9219;50.396;8.546;2023-04-24T18:09:59;8.37;;;3.60;;
18188;SDS011;9219;50.396;8.546;2023-04-24T18:12:26;5.50;;;3.90;;
18188;SDS011;9219;50.396;8.546;2023-04-24T18:14:54;4.87;;;4.20;;
18188;SDS011;9219;50.396;8.546;2023-04-24T18:17:39;6.27;;;3.80;;
18188;SDS011;9219;50.396;8.546;2023-04-24T18:20:08;5.67;;;4.03;;
18188;SDS011;9219;50.396;8.546;2023-04-24T18:22:36;8.70;;;4.43;;
18188;SDS011;9219;50.396;8.546;2023-04-24T18:30:37;7.83;;;4.37;;
18188;SDS011;9219;50.396;8.546;2023-04-24T18:33:06;5.07;;;3.67;;
18188;SDS011;9219;50.396;8.546;2023-04-24T18:35:34;5.77;;;3.90;;
18188;SDS011;9219;50.396;8.546;2023-04-24T18:38:02;5.80;;;4.33;;